Latest Weather Observations for Lismore Airport

IDN60801

Issued at 7:52 am EST Tuesday 21 August 2018 (issued every 10 minutes, with the page automatically refreshed every 10 minutes)

About weather observations | Map of weather stations | Latest weather observations for NSW | Other Formats
Station Details ID: 058214 Name: LISMORE AIRPORT AWS Lat: -28.83 Lon: 153.26 Height: 9.21 m
Data from the previous 72 hours. | See also: Recent months at Lismore Airport
Date/Time
EST
Temp
°C
App
Temp
°C
Dew
Point
°C
Rel
Hum
%
Delta-T
°C
Wind Press
QNH
hPa
Press
MSL
hPa
Rain since
9am
mm
Dir  Spd
km/h
Gust
km/h
Spd
kts
Gust
kts
21/07:30am 3.4 -0.8 1.9 90 0.6 NNE 13 15 7 8 1018.9 1018.9 0.0
21/07:00am 0.9 -3.6 -0.1 93 0.4 N 13 15 7 8 1018.9 1018.9 0.0
21/06:30am -0.1 -4.3 -1.1 93 0.3 N 11 11 6 6 1018.9 1018.9 0.0
21/06:00am 0.1 -4.9 -1.0 92 0.4 N 15 15 8 8 1018.7 1018.7 0.0
21/05:30am 0.8 -3.7 -0.5 91 0.5 N 13 15 7 8 1018.4 1018.4 0.0
21/05:00am 1.6 -2.1 0.0 89 0.6 NE 9 13 5 7 1018.3 1018.3 0.0
21/04:30am 2.5 -2.6 0.9 89 0.6 N 17 20 9 11 1018.0 1018.0 0.0
21/04:00am 1.6 -2.5 0.0 89 0.6 N 11 15 6 8 1018.3 1018.3 0.0
21/03:30am 2.1 -2.4 0.0 86 0.8 NNE 13 13 7 7 1018.5 1018.5 0.0
21/03:00am 2.2 -2.6 0.3 87 0.7 N 15 17 8 9 1018.7 1018.7 0.0
21/02:30am 2.1 -2.0 0.0 86 0.8 N 11 15 6 8 1018.7 1018.7 0.0
21/02:00am 2.5 -2.7 -0.1 83 1.0 N 17 19 9 10 1018.8 1018.8 0.0
21/01:30am 4.0 -0.3 1.2 82 1.1 N 13 19 7 10 1019.0 1019.0 0.0
21/01:00am 4.7 0.8 1.2 78 1.4 NNE 11 13 6 7 1019.2 1019.2 0.0
21/12:30am 4.8 0.5 1.3 78 1.4 N 13 17 7 9 1019.5 1019.5 0.0
21/12:00am 4.9 1.1 1.6 79 1.3 NNE 11 15 6 8 1019.4 1019.4 0.0
 
Date/Time
EST
Temp
°C
App
Temp
°C
Dew
Point
°C
Rel
Hum
%
Delta-T
°C
Wind Press
QNH
hPa
Press
MSL
hPa
Rain since
9am
mm
Dir  Spd
km/h
Gust
km/h
Spd
kts
Gust
kts
20/11:30pm 4.3 0.3 0.8 78 1.3 N 11 15 6 8 1019.2 1019.2 0.0
20/11:00pm 5.1 1.6 1.4 77 1.5 N 9 13 5 7 1019.5 1019.5 0.0
20/10:30pm 5.8 2.4 1.7 75 1.6 N 9 11 5 6 1019.7 1019.7 0.0
20/10:00pm 5.3 2.2 1.4 76 1.5 N 7 11 4 6 1019.7 1019.7 0.0
20/09:30pm 5.5 2.3 0.7 71 1.9 N 7 9 4 5 1019.7 1019.7 0.0
20/09:00pm 6.5 2.3 1.6 71 2.0 N 13 13 7 7 1019.3 1019.3 0.0
20/08:30pm 6.3 2.4 1.0 69 2.1 N 11 13 6 7 1018.8 1018.8 0.0
20/08:00pm 6.8 3.0 1.9 71 2.0 N 11 13 6 7 1018.7 1018.7 0.0
20/07:30pm 6.7 3.2 1.0 67 2.3 N 9 11 5 6 1018.4 1018.4 0.0
20/07:00pm 6.6 4.1 1.3 69 2.1 SSW 4 15 2 8 1018.1 1018.1 0.0
20/06:30pm 8.6 6.8 1.3 60 3.0 CALM 0 0 0 0 1017.7 1017.7 0.0
20/06:00pm 9.8 7.1 0.4 52 3.8 NNE 4 7 2 4 1017.2 1017.2 0.0
20/05:30pm 13.3 11.5 1.3 44 5.1 CALM 0 2 0 1 1016.8 1016.8 0.0
20/05:00pm 15.0 11.5 1.5 40 5.9 SE 9 17 5 9 1016.5 1016.5 0.0
20/04:30pm 16.1 10.4 0.7 35 6.7 SE 20 28 11 15 1016.0 1016.0 0.0
20/04:00pm 17.0 11.4 -0.2 31 7.4 SE 19 28 10 15 1015.9 1015.9 0.0
20/03:30pm 18.7 12.9 -8.4 15 10.0 SSE 15 20 8 11 1015.6 1015.6 0.0
20/03:00pm 18.8 13.5 -7.5 16 9.8 S 13 17 7 9 1015.7 1015.7 0.0
20/02:30pm 18.9 12.4 -8.3 15 10.0 S 19 26 10 14 1015.7 1015.7 0.0
20/02:00pm 18.4 11.2 -9.5 14 10.0 SSW 22 32 12 17 1015.8 1015.8 0.0
20/01:30pm 18.4 11.6 -8.7 15 9.9 SSW 20 30 11 16 1015.9 1015.9 0.0
20/01:00pm 18.3 11.2 -8.7 15 9.8 SSW 22 35 12 19 1016.1 1016.1 0.0
20/12:30pm 18.6 11.6 -7.7 16 9.8 SSW 22 33 12 18 1016.3 1016.3 0.0
20/12:00pm 18.8 12.2 -6.7 17 9.7 WSW 20 33 11 18 1016.7 1016.7 0.0
20/11:30am 17.6 9.7 -9.3 15 9.6 SW 26 39 14 21 1017.0 1017.0 0.0
20/11:00am 17.3 8.4 -7.2 18 9.1 WSW 32 46 17 25 1017.5 1017.5 0.0
20/10:30am 16.6 9.2 -7.8 18 8.9 WSW 24 35 13 19 1017.8 1017.8 0.0
20/10:00am 15.4 7.2 -7.4 20 8.2 WSW 28 39 15 21 1018.2 1018.2 0.0
20/09:30am 14.3 6.6 -6.5 23 7.6 W 26 35 14 19 1018.1 1018.1 0.0
20/09:00am 14.0 6.0 -6.2 24 7.3 W 28 41 15 22 1018.2 1018.2 0.0
20/08:30am 13.5 5.9 -5.1 27 6.9 WNW 26 35 14 19 1018.2 1018.2 0.0
20/08:00am 12.4 5.6 -5.1 29 6.4 WNW 22 30 12 16 1018.2 1018.2 0.0
20/07:30am 11.4 5.1 -4.3 33 5.8 WNW 20 26 11 14 1018.1 1018.1 0.0
20/07:00am 10.0 5.1 -3.6 38 5.0 WNW 13 20 7 11 1017.9 1017.9 0.0
20/06:30am 8.9 3.2 -3.6 41 4.5 WNW 17 20 9 11 1017.3 1017.3 0.0
20/06:00am 7.6 2.6 -4.2 43 4.2 NW 13 17 7 9 1017.0 1017.0 0.0
20/05:30am 9.3 3.2 -3.9 39 4.8 WNW 19 24 10 13 1016.6 1016.6 0.0
20/05:00am 9.1 3.4 -4.1 39 4.8 WNW 17 24 9 13 1016.3 1016.3 0.0
20/04:30am 10.0 3.6 -4.7 35 5.3 WNW 20 32 11 17 1015.9 1015.9 0.0
20/04:00am 10.8 3.3 -4.4 34 5.5 W 26 37 14 20 1015.8 1015.8 0.0
20/03:30am 8.2 2.4 -4.6 40 4.5 WNW 17 26 9 14 1015.9 1015.9 0.0
20/03:00am 8.9 3.8 -5.0 37 4.9 WNW 13 19 7 10 1015.8 1015.8 0.0
20/02:30am 9.8 4.0 -4.9 35 5.2 WNW 17 26 9 14 1015.6 1015.6 0.0
20/02:00am 10.7 5.6 -5.3 32 5.7 WNW 13 17 7 9 1015.7 1015.7 0.0
20/01:30am 11.7 5.5 -4.8 31 6.0 W 19 32 10 17 1015.8 1015.8 0.0
20/01:00am 10.8 5.4 -4.8 33 5.6 W 15 22 8 12 1016.0 1016.0 0.0
20/12:30am 12.5 6.3 -4.6 30 6.3 W 19 33 10 18 1016.1 1016.1 0.0
20/12:00am 10.8 5.4 -4.4 34 5.5 WNW 15 26 8 14 1016.0 1016.0 0.0
 
Date/Time
EST
Temp
°C
App
Temp
°C
Dew
Point
°C
Rel
Hum
%
Delta-T
°C
Wind Press
QNH
hPa
Press
MSL
hPa
Rain since
9am
mm
Dir  Spd
km/h
Gust
km/h
Spd
kts
Gust
kts
19/11:30pm 12.0 6.2 -4.2 32 6.0 WNW 17 22 9 12 1016.1 1016.1 0.0
19/11:00pm 12.9 6.8 -4.2 30 6.4 WNW 19 28 10 15 1016.2 1016.2 0.0
19/10:30pm 13.1 6.9 -4.5 29 6.6 WNW 19 28 10 15 1016.3 1016.3 0.0
19/10:00pm 12.8 7.0 -4.8 29 6.5 NW 17 26 9 14 1016.4 1016.4 0.0
19/09:30pm 13.5 7.3 -5.1 27 6.9 NW 19 26 10 14 1016.4 1016.4 0.0
19/09:00pm 13.8 7.5 -5.9 25 7.2 NW 19 28 10 15 1016.3 1016.3 0.0
19/08:30pm 13.5 6.9 -6.6 24 7.2 WNW 20 26 11 14 1015.9 1015.9 0.0
19/08:00pm 14.0 7.4 -7.4 22 7.6 WNW 20 30 11 16 1015.6 1015.6 0.0
19/07:30pm 14.7 8.0 -10.8 16 8.5 W 19 22 10 12 1015.2 1015.2 0.0
19/07:00pm 16.1 8.0 -11.4 14 9.2 WSW 26 39 14 21 1014.7 1014.7 0.0
19/06:30pm 16.1 9.1 -11.4 14 9.2 W 20 35 11 19 1014.2 1014.2 0.0
19/06:00pm 17.3 9.5 -13.4 11 10.0 W 24 37 13 20 1013.7 1013.7 0.0
19/05:30pm 18.0 10.2 -12.9 11 10.3 W 24 32 13 17 1013.1 1013.1 0.0
19/05:00pm 19.3 11.5 -13.0 10 10.9 W 24 39 13 21 1012.5 1012.5 0.0
19/04:30pm 20.0 11.1 -12.5 10 11.2 W 30 41 16 22 1011.9 1011.9 0.0
19/04:00pm 20.5 9.9 -12.1 10 11.4 WNW 39 54 21 29 1011.4 1011.4 0.0
19/03:30pm 21.2 12.0 -11.6 10 11.6 W 32 54 17 29 1011.3 1011.3 0.0
19/03:02pm 21.9 12.7 -11.1 10 11.9 W 32 50 17 27 1011.3 1011.3 0.0
19/03:00pm 21.5 12.1 -11.4 10 11.8 WNW 33 50 18 27 1011.3 1011.3 0.0
19/02:30pm 21.9 13.1 -11.1 10 11.9 W 30 52 16 28 1011.5 1011.5 0.0
19/02:24pm 22.1 12.9 -10.9 10 12.0 W 32 52 17 28 1011.4 1011.4 0.0
19/02:00pm 22.4 15.3 -8.4 12 11.8 W 22 39 12 21 1011.6 1011.6 0.0
19/01:30pm 22.2 14.8 -7.5 13 11.5 WSW 24 35 13 19 1011.8 1011.8 0.0
19/01:00pm 21.7 13.3 -6.0 15 11.0 NW 30 43 16 23 1012.2 1012.2 0.0
19/12:30pm 21.9 14.7 -5.0 16 10.9 WNW 24 41 13 22 1012.5 1012.5 0.0
19/12:00pm 21.2 14.1 -4.8 17 10.5 WNW 24 41 13 22 1012.9 1012.9 0.0
19/11:30am 21.3 13.9 -4.0 18 10.4 WNW 26 39 14 21 1013.3 1013.3 0.0
19/11:00am 20.1 13.1 -3.5 20 9.7 W 24 41 13 22 1013.9 1013.9 0.0
19/10:30am 20.0 13.1 -3.0 21 9.6 WNW 24 35 13 19 1014.2 1014.2 0.0
19/10:00am 20.5 13.4 -1.3 23 9.4 WNW 26 39 14 21 1014.4 1014.4 0.0
19/09:30am 20.1 12.6 -1.1 24 9.2 NW 28 41 15 22 1014.5 1014.5 0.0
19/09:00am 19.1 10.7 -2.5 23 9.0 WNW 32 48 17 26 1014.4 1014.4 0.0
19/08:30am 18.5 10.2 -1.9 25 8.5 WNW 32 50 17 27 1014.4 1014.4 0.0
19/08:00am 18.6 11.2 -0.7 27 8.3 NW 28 41 15 22 1014.4 1014.4 0.0
19/07:30am 17.9 12.1 0.1 30 7.7 NW 20 28 11 15 1014.3 1014.3 0.0
19/07:00am 16.5 10.9 1.0 35 6.8 NW 20 30 11 16 1014.0 1014.0 0.0
19/06:30am 13.7 8.6 2.9 48 4.8 NW 19 22 10 12 1013.8 1013.8 0.0
19/06:24am 12.2 8.5 4.4 59 3.5 NW 13 22 7 12 1013.7 1013.7 0.0
19/06:00am 5.2 1.7 1.0 74 1.6 N 9 13 5 7 1013.4 1013.4 0.0
19/05:30am 6.0 2.1 1.3 72 1.9 NNE 11 13 6 7 1013.1 1013.1 0.0
19/05:00am 6.1 1.9 1.6 73 1.8 NNE 13 15 7 8 1012.9 1012.9 0.0
19/04:30am 6.7 2.5 1.8 71 2.0 NNE 13 15 7 8 1012.9 1012.9 0.0
19/04:00am 6.9 2.7 1.8 70 2.1 NNE 13 17 7 9 1012.8 1012.8 0.0
19/03:30am 7.0 2.8 1.9 70 2.1 NNE 13 17 7 9 1012.6 1012.6 0.0
19/03:00am 6.8 2.7 2.1 72 1.9 N 13 15 7 8 1012.8 1012.8 0.0
19/02:30am 6.8 2.6 1.9 71 2.0 N 13 17 7 9 1013.1 1013.1 0.0
19/02:00am 7.8 3.8 2.7 70 2.1 NNE 13 15 7 8 1013.1 1013.1 0.0
19/01:30am 8.4 4.7 2.4 66 2.5 NNE 11 15 6 8 1013.6 1013.6 0.0
19/01:00am 8.5 5.2 2.3 65 2.6 N 9 13 5 7 1013.8 1013.8 0.0
19/12:30am 9.2 5.3 3.4 67 2.5 N 13 15 7 8 1013.9 1013.9 0.0
19/12:00am 9.0 4.9 2.3 63 2.8 N 13 17 7 9 1013.9 1013.9 0.0
 
Date/Time
EST
Temp
°C
App
Temp
°C
Dew
Point
°C
Rel
Hum
%
Delta-T
°C
Wind Press
QNH
hPa
Press
MSL
hPa
Rain since
9am
mm
Dir  Spd
km/h
Gust
km/h
Spd
kts
Gust
kts
18/11:30pm 9.9 6.5 4.1 67 2.6 NNE 11 13 6 7 1013.7 1013.7 0.0
18/11:00pm 10.2 9.1 5.2 71 2.3 CALM 0 0 0 0 1013.8 1013.8 0.0
18/10:30pm 12.2 8.5 2.1 50 4.3 NE 11 13 6 7 1013.8 1013.8 0.0
18/10:00pm 10.7 8.2 3.7 62 3.1 NNE 6 9 3 5 1013.6 1013.6 0.0
18/09:30pm 10.0 6.4 0.6 52 3.8 NW 9 11 5 6 1013.5 1013.5 0.0
18/09:00pm 13.8 9.8 0.5 40 5.6 N 11 13 6 7 1013.4 1013.4 0.0
18/08:30pm 17.3 12.5 0.0 31 7.5 NNE 15 17 8 9 1013.3 1013.3 0.0
18/08:00pm 18.2 13.8 0.4 30 7.8 N 13 19 7 10 1013.2 1013.2 0.0
18/07:30pm 17.4 12.2 0.1 31 7.5 NNW 17 24 9 13 1012.9 1012.9 0.0
18/07:00pm 14.5 10.9 6.8 60 3.7 N 15 17 8 9 1012.6 1012.6 0.0
18/06:30pm 15.2 12.2 6.2 55 4.3 N 11 13 6 7 1012.3 1012.3 0.0
18/06:00pm 17.0 13.7 6.2 49 5.3 N 13 15 7 8 1011.8 1011.8 0.0
18/05:30pm 18.7 15.1 5.2 41 6.5 N 13 17 7 9 1011.5 1011.5 0.0
18/05:00pm 22.8 18.2 -1.3 20 10.6 WNW 13 17 7 9 1011.1 1011.1 0.0
18/04:30pm 24.7 19.6 -2.0 17 11.8 WNW 15 20 8 11 1010.8 1010.8 0.0
18/04:00pm 26.1 20.5 -2.5 15 12.7 WNW 17 24 9 13 1010.6 1010.6 0.0
18/03:30pm 26.5 20.3 -3.1 14 13.0 WNW 20 33 11 18 1010.5 1010.5 0.0
18/03:00pm 26.9 20.4 -2.8 14 13.2 NW 22 37 12 20 1010.6 1010.6 0.0
18/02:30pm 26.1 21.9 -0.8 17 12.3 N 11 19 6 10 1010.8 1010.8 0.0
18/02:00pm 25.3 20.0 -0.7 18 11.8 W 17 26 9 14 1011.3 1011.3 0.0
18/01:30pm 25.0 20.0 -0.9 18 11.7 NNW 15 24 8 13 1011.9 1011.9 0.0
18/01:00pm 24.9 20.0 -0.3 19 11.5 WNW 15 26 8 14 1012.5 1012.5 0.0
18/12:30pm 24.8 18.3 0.3 20 11.3 WNW 24 35 13 19 1013.1 1013.1 0.0
18/12:00pm 23.3 17.4 -0.9 20 10.8 WSW 20 30 11 16 1013.9 1013.9 0.0
18/11:30am 23.0 17.3 -1.1 20 10.7 W 19 30 10 16 1014.7 1014.7 0.0
18/11:00am 21.8 16.2 -2.8 19 10.4 W 17 28 9 15 1015.4 1015.4 0.0
18/10:30am 21.6 17.3 0.8 25 9.5 NW 13 22 7 12 1016.1 1016.1 0.0
18/10:00am 18.5 18.4 10.8 61 4.2 ENE 2 11 1 6 1016.7 1016.7 0.0
18/09:30am 17.0 16.5 12.1 73 2.7 NNE 6 9 3 5 1017.0 1017.0 0.0
18/09:00am 14.0 12.3 11.2 83 1.5 N 11 13 6 7 1017.3 1017.3 0.0
18/08:30am 11.4 9.5 10.5 94 0.5 N 11 13 6 7 1017.5 1017.5 0.0
18/08:16am 10.3 8.2 9.8 97 0.3 N 11 13 6 7 1017.5 1017.5 0.0
18/08:11am 10.2 8.1 9.7 97 0.3 NNE 11 13 6 7 1017.5 1017.5 0.0
18/08:00am 9.2 7.2 8.7 97 0.2 NNE 9 11 5 6 1017.3 1017.3 0.0

Other Formats:

Comma delimited format used in spreadsheet applications
http://www.bom.gov.au/fwo/IDN60801/IDN60801.94572.axf

JavaScript Object Notation format (JSON) in row-major order
http://www.bom.gov.au/fwo/IDN60801/IDN60801.94572.json